Strona główna
METAR-TAF:

METAR-TAF

Lotnisko :

Ørland, Norwegia

Szerokość geograficzna: 63-42N, Długość geograficzna: 009-36E, wysokość: 0 m

Aktualna obserwacja pogody

Raport powstał 32 minut temu, godzina 21:50 UTC
Wiatr 9 kt od wschód
Temperatura 16°C
Wilgotność 45%
Ciśnienie 998 hPa
Widzialność 10 km lub więcej
Brak chmur poniżej 1500 m i brak chmur cumulonimbus

METAR: ENOL 042150Z 10009KT CAVOK 16/04 Q0998

czas: 00:22 (22:22 UTC)

Prognoza

Prognoza ważna od 04 godzina 18 UTC do 05 godzina 18 UTC
Wiatr 12 kt od południowy wschód
Widzialność 10 km lub więcej
Brak chmur poniżej 1500 m i brak chmur cumulonimbus
Prawdopodobieństwo 40% :
Przejściowo
od 04 godzina 18 UTC do 05 godzina 07 UTC
Wiatr 15 kt od południowy wschód w porywach dochodzący do 25 kt

TAF: ENOL 0418/0518 13012KT CAVOK PROB40 TEMPO 0418/0507 14015G25KT

Obserwacja i prognoza pogody dla ponad 4000 lotnisk (raport METAR i TAF).

Dostępne stacje oznaczono żółtymi i czerwonymi punktami na mapie.

Najedź kursorem aby zobaczyć nazwę stacji.

Kliknij aby zobaczyć obserwacje i prognozy pogody.

Aby zmienić mapę: kliknij na zielony przycisk z czarnym krzyżykiem, aby powiększyć; na zielony przycisk z myślnikiem, aby pomniejszyć; na zielone strzałki, aby przejść do map sąsiednich.


METAR-TAF: